createdAt,value
2024-03-03T00:01:16.162Z,99418.00
2024-03-03T00:05:17.724Z,99438.50
2024-03-03T00:09:21.369Z,99453.56
2024-03-03T00:13:23.528Z,99445.38
2024-03-03T00:17:25.343Z,99452.91
2024-03-03T00:21:27.270Z,99457.06
2024-03-03T00:25:28.741Z,99410.16
2024-03-03T00:29:30.258Z,99396.41
2024-03-03T00:33:31.893Z,99393.53
2024-03-03T00:37:33.406Z,99404.72
2024-03-03T00:41:34.840Z,99443.47
2024-03-03T00:45:36.433Z,99451.38
2024-03-03T00:49:37.937Z,99447.81
2024-03-03T00:53:39.493Z,99442.66
2024-03-03T00:57:40.946Z,99375.75
2024-03-03T01:01:42.536Z,99445.38
2024-03-03T01:05:44.022Z,99397.94
2024-03-03T01:09:45.580Z,99430.97
2024-03-03T01:13:47.071Z,99429.66
2024-03-03T01:17:48.653Z,99422.59
2024-03-03T01:21:50.137Z,99371.13
2024-03-03T01:25:51.701Z,99373.44
2024-03-03T01:29:53.467Z,99389.75
2024-03-03T01:33:55.018Z,99428.78
2024-03-03T01:37:56.512Z,99413.88
2024-03-03T01:41:58.061Z,99380.59
2024-03-03T01:45:59.560Z,99434.03
2024-03-03T01:50:02.071Z,99444.56
2024-03-03T01:54:05.290Z,99428.31
2024-03-03T01:58:08.523Z,99440.06
2024-03-03T02:02:10.419Z,99410.41
2024-03-03T02:06:12.089Z,99401.47
2024-03-03T02:10:16.664Z,99390.53
2024-03-03T02:14:18.235Z,99405.78
2024-03-03T02:18:19.713Z,99426.97
2024-03-03T02:22:21.297Z,99384.34
2024-03-03T02:26:24.919Z,99373.50
2024-03-03T02:30:26.424Z,99429.50
2024-03-03T02:34:29.533Z,99367.41
2024-03-03T02:38:31.688Z,99426.13
2024-03-03T02:42:36.351Z,99440.03
2024-03-03T02:46:38.321Z,99423.16
2024-03-03T02:50:40.009Z,99403.09
2024-03-03T02:54:41.509Z,99428.34
2024-03-03T02:58:43.049Z,99434.44
2024-03-03T03:02:44.501Z,99377.69
2024-03-03T03:06:46.013Z,99409.88
2024-03-03T03:10:47.529Z,99423.59
2024-03-03T03:14:49.054Z,99411.25
2024-03-03T03:18:50.559Z,99380.63
2024-03-03T03:22:52.126Z,99410.41
2024-03-03T03:26:54.039Z,99431.66
2024-03-03T03:30:55.607Z,99409.47
2024-03-03T03:34:57.093Z,99361.91
2024-03-03T03:39:00.329Z,99406.06
2024-03-03T03:43:05.398Z,99322.44
2024-03-03T03:47:06.889Z,99379.59
2024-03-03T03:51:08.599Z,99428.09
2024-03-03T03:55:10.155Z,99408.63
2024-03-03T03:59:11.724Z,99412.78
2024-03-03T04:03:13.950Z,99411.59
2024-03-03T04:07:15.472Z,99401.53
2024-03-03T04:11:17.243Z,99399.97
2024-03-03T04:15:18.968Z,99398.03
2024-03-03T04:19:20.600Z,99307.44
2024-03-03T04:23:22.142Z,99349.69
2024-03-03T04:27:23.582Z,99395.50
2024-03-03T04:31:25.838Z,99345.56
2024-03-03T04:35:27.273Z,99354.19
2024-03-03T04:39:29.516Z,99394.09
2024-03-03T04:43:31.029Z,99393.19
2024-03-03T04:47:32.552Z,99342.44
2024-03-03T04:51:34.005Z,99372.31
2024-03-03T04:55:35.509Z,99340.03
2024-03-03T04:59:37.050Z,99376.31
2024-03-03T05:03:39.696Z,99396.97
2024-03-03T05:07:41.996Z,99351.16
2024-03-03T05:11:44.129Z,99394.13
2024-03-03T05:15:45.622Z,99405.16
2024-03-03T05:19:47.125Z,99402.78
2024-03-03T05:23:48.582Z,99400.97
2024-03-03T05:27:50.146Z,99340.16
2024-03-03T05:31:51.586Z,99408.88
2024-03-03T05:35:53.131Z,99410.91
2024-03-03T05:39:54.633Z,99418.00
2024-03-03T05:43:56.156Z,99397.50
2024-03-03T05:47:57.646Z,99366.47
2024-03-03T05:51:59.259Z,99365.63
2024-03-03T05:56:00.742Z,99426.13
2024-03-03T06:00:02.494Z,99408.84
2024-03-03T06:04:04.200Z,99412.31
2024-03-03T06:08:06.156Z,99428.69
2024-03-03T06:12:08.328Z,99438.41
2024-03-03T06:16:09.812Z,99414.47
2024-03-03T06:20:11.605Z,99359.19
2024-03-03T06:24:13.219Z,99407.00
2024-03-03T06:28:14.864Z,99425.88
2024-03-03T06:32:16.407Z,99385.59
2024-03-03T06:36:19.254Z,99449.44
2024-03-03T06:40:21.328Z,99387.38
2024-03-03T06:44:23.022Z,99376.41
2024-03-03T06:48:24.480Z,99454.94
2024-03-03T06:52:26.252Z,99394.56
2024-03-03T06:56:27.816Z,99452.53
2024-03-03T07:00:29.385Z,99383.78
2024-03-03T07:04:30.925Z,99448.41
2024-03-03T07:08:32.394Z,99411.50
2024-03-03T07:12:33.910Z,99443.06
2024-03-03T07:16:35.443Z,99437.03
2024-03-03T07:20:36.981Z,99394.88
2024-03-03T07:24:38.419Z,99399.13
2024-03-03T07:28:39.976Z,99396.91
2024-03-03T07:32:42.098Z,99427.88
2024-03-03T07:36:43.644Z,99427.19
2024-03-03T07:40:45.789Z,99422.97
2024-03-03T07:44:47.305Z,99389.38
2024-03-03T07:48:48.864Z,99377.75
2024-03-03T07:52:50.397Z,99429.06
2024-03-03T07:56:51.898Z,99430.31
2024-03-03T08:00:53.575Z,99384.56
2024-03-03T08:04:57.419Z,99438.03
2024-03-03T08:09:04.556Z,99396.81
2024-03-03T08:13:06.101Z,99408.63
2024-03-03T08:17:07.668Z,99401.31
2024-03-03T08:21:09.746Z,99396.91
2024-03-03T08:25:15.158Z,99394.34
2024-03-03T08:29:17.538Z,99399.31
2024-03-03T08:33:19.109Z,99447.47
2024-03-03T08:37:20.627Z,99408.44
2024-03-03T08:41:22.248Z,99381.84
2024-03-03T08:45:23.837Z,99437.97
2024-03-03T08:49:26.298Z,99391.31
2024-03-03T08:53:27.829Z,99391.75
2024-03-03T08:57:29.396Z,99438.50
2024-03-03T09:01:31.291Z,99452.97
2024-03-03T09:05:32.947Z,99400.09
2024-03-03T09:09:41.338Z,99429.09
2024-03-03T09:13:44.393Z,99438.16
2024-03-03T09:17:46.776Z,99390.28
2024-03-03T09:21:48.588Z,99434.47
2024-03-03T09:25:50.166Z,99438.41
2024-03-03T09:29:51.690Z,99382.41
2024-03-03T09:33:53.272Z,99426.31
2024-03-03T09:37:54.797Z,99424.19
2024-03-03T09:41:59.508Z,99434.53
2024-03-03T09:46:04.353Z,99382.41
2024-03-03T09:50:16.498Z,99432.44
2024-03-03T09:54:22.118Z,99428.94
2024-03-03T09:58:23.720Z,99377.00
2024-03-03T10:02:27.206Z,99420.97
2024-03-03T10:06:30.790Z,99370.72
2024-03-03T10:10:36.873Z,99358.28
2024-03-03T10:14:39.875Z,99410.50
2024-03-03T10:18:41.442Z,99318.28
2024-03-03T10:22:45.297Z,99413.19
2024-03-03T10:26:46.922Z,99405.66
2024-03-03T10:30:48.578Z,99356.91
2024-03-03T10:34:58.428Z,99340.56
2024-03-03T10:39:00.221Z,99359.19
2024-03-03T10:43:02.001Z,99332.75
2024-03-03T10:47:08.984Z,99347.94
2024-03-03T10:51:18.878Z,99327.81
2024-03-03T10:55:20.530Z,99389.41
2024-03-03T10:59:22.710Z,99390.19
2024-03-03T11:03:25.249Z,99389.16
2024-03-03T11:07:30.714Z,99319.53
2024-03-03T11:11:38.665Z,99356.69
2024-03-03T11:15:45.820Z,99296.47
2024-03-03T11:19:49.124Z,99375.94
2024-03-03T11:23:58.675Z,99343.66
2024-03-03T11:28:01.143Z,99351.19
2024-03-03T11:32:04.003Z,99361.19
2024-03-03T11:36:06.289Z,99345.75
2024-03-03T11:40:17.761Z,99407.56
2024-03-03T11:44:36.764Z,99409.06
2024-03-03T11:48:41.559Z,99391.41
2024-03-03T11:52:47.727Z,99347.28
2024-03-03T11:56:52.420Z,99322.19
2024-03-03T12:01:10.044Z,99388.78
2024-03-03T12:05:14.274Z,99395.59
2024-03-03T12:09:18.160Z,99357.47
2024-03-03T12:13:19.747Z,99342.91
2024-03-03T12:17:21.237Z,99397.25
2024-03-03T12:21:24.426Z,99339.34
2024-03-03T12:25:26.831Z,99340.66
2024-03-03T12:29:28.833Z,99380.16
2024-03-03T12:33:30.382Z,99322.53
2024-03-03T12:37:32.411Z,99383.28
2024-03-03T12:41:37.603Z,99320.84
2024-03-03T12:45:42.720Z,99367.50
2024-03-03T12:49:45.336Z,99372.44
2024-03-03T12:53:47.700Z,99361.66
2024-03-03T12:57:49.642Z,99333.75
2024-03-03T13:01:51.718Z,99358.94
2024-03-03T13:05:53.332Z,99349.31
2024-03-03T13:09:55.511Z,99347.13
2024-03-03T13:13:57.633Z,99310.06
2024-03-03T13:18:08.786Z,99344.28
2024-03-03T13:22:10.409Z,99300.09
2024-03-03T13:26:12.404Z,99336.69
2024-03-03T13:30:14.849Z,99283.81
2024-03-03T13:34:17.280Z,99344.28
2024-03-03T13:38:19.102Z,99346.72
2024-03-03T13:42:20.859Z,99355.94
2024-03-03T13:46:22.455Z,99348.88
2024-03-03T13:50:24.148Z,99299.91
2024-03-03T13:54:25.648Z,99309.28
2024-03-03T13:58:27.328Z,99307.69
2024-03-03T14:02:28.837Z,99358.38
2024-03-03T14:06:30.350Z,99354.25
2024-03-03T14:10:32.186Z,99362.69
2024-03-03T14:14:34.169Z,99359.97
2024-03-03T14:18:35.983Z,99373.72
2024-03-03T14:22:37.489Z,99380.56
2024-03-03T14:26:39.032Z,99384.06
2024-03-03T14:30:41.410Z,99386.13
2024-03-03T14:34:43.008Z,99312.78
2024-03-03T14:38:45.064Z,99330.38
2024-03-03T14:42:46.712Z,99331.47
2024-03-03T14:46:48.220Z,99357.34
2024-03-03T14:50:49.731Z,99334.50
2024-03-03T14:54:52.148Z,99365.69
2024-03-03T14:58:54.309Z,99390.63
2024-03-03T15:02:55.902Z,99371.72
2024-03-03T15:06:58.032Z,99387.03
2024-03-03T15:11:00.130Z,99379.91
2024-03-03T15:15:01.728Z,99384.31
2024-03-03T15:19:04.308Z,99318.16
2024-03-03T15:23:05.887Z,99325.47
2024-03-03T15:27:07.511Z,99372.00
2024-03-03T15:31:09.605Z,99381.69
2024-03-03T15:35:14.103Z,99381.88
2024-03-03T15:39:16.694Z,99321.78
2024-03-03T15:43:18.259Z,99325.88
2024-03-03T15:47:19.957Z,99333.56
2024-03-03T15:51:21.774Z,99388.63
2024-03-03T15:55:24.351Z,99375.88
2024-03-03T15:59:26.339Z,99378.59
2024-03-03T16:03:29.113Z,99332.81
2024-03-03T16:07:32.096Z,99384.31
2024-03-03T16:11:35.039Z,99374.81
2024-03-03T16:15:36.676Z,99360.81
2024-03-03T16:19:39.595Z,99325.75
2024-03-03T16:23:41.344Z,99347.84
2024-03-03T16:27:43.059Z,99389.41
2024-03-03T16:31:45.526Z,99391.06
2024-03-03T16:35:47.888Z,99348.78
2024-03-03T16:39:51.229Z,99350.69
2024-03-03T16:43:52.872Z,99403.41
2024-03-03T16:47:58.720Z,99346.72
2024-03-03T16:52:00.429Z,99355.28
2024-03-03T16:56:02.061Z,99419.78
2024-03-03T17:00:04.574Z,99376.63
2024-03-03T17:04:06.589Z,99377.28
2024-03-03T17:08:08.339Z,99417.44
2024-03-03T17:12:09.892Z,99436.16
2024-03-03T17:16:12.054Z,99442.38
2024-03-03T17:20:14.220Z,99377.75
2024-03-03T17:24:15.850Z,99367.03
2024-03-03T17:28:17.636Z,99402.88
2024-03-03T17:32:19.415Z,99397.78
2024-03-03T17:36:24.006Z,99460.50
2024-03-03T17:40:28.449Z,99468.13
2024-03-03T17:44:30.027Z,99470.88
2024-03-03T17:48:32.496Z,99470.88
2024-03-03T17:52:34.411Z,99424.31
2024-03-03T17:56:39.973Z,99473.41
2024-03-03T18:00:41.461Z,99469.56
2024-03-03T18:04:43.189Z,99448.28
2024-03-03T18:08:44.865Z,99490.06
2024-03-03T18:12:46.524Z,99499.75
2024-03-03T18:16:48.115Z,99490.38
2024-03-03T18:20:50.239Z,99491.97
2024-03-03T18:24:51.777Z,99440.22
2024-03-03T18:28:53.322Z,99437.13
2024-03-03T18:32:55.616Z,99451.50
2024-03-03T18:36:57.306Z,99438.81
2024-03-03T18:40:58.986Z,99446.72
2024-03-03T18:45:01.117Z,99490.84
2024-03-03T18:49:02.964Z,99441.91
2024-03-03T18:53:05.257Z,99458.00
2024-03-03T18:57:06.834Z,99490.44
2024-03-03T19:01:08.386Z,99459.22
2024-03-03T19:05:10.872Z,99508.88
2024-03-03T19:09:15.205Z,99507.00
2024-03-03T19:13:16.956Z,99509.38
2024-03-03T19:17:21.600Z,99455.28
2024-03-03T19:21:23.157Z,99450.19
2024-03-03T19:25:24.831Z,99456.88
2024-03-03T19:29:26.547Z,99456.94
2024-03-03T19:33:28.080Z,99463.63
2024-03-03T19:37:29.781Z,99517.94
2024-03-03T19:41:31.529Z,99469.38
2024-03-03T19:45:33.118Z,99462.50
2024-03-03T19:49:34.733Z,99514.75
2024-03-03T19:53:36.861Z,99474.81
2024-03-03T19:57:38.407Z,99477.63
2024-03-03T20:01:40.149Z,99524.88
2024-03-03T20:05:41.804Z,99516.81
2024-03-03T20:09:46.286Z,99523.59
2024-03-03T20:13:48.217Z,99529.59
2024-03-03T20:17:49.899Z,99534.13
2024-03-03T20:21:51.461Z,99530.94
2024-03-03T20:25:53.002Z,99519.06
2024-03-03T20:29:54.554Z,99518.88
2024-03-03T20:33:56.418Z,99541.28
2024-03-03T20:37:57.958Z,99444.63
2024-03-03T20:41:59.426Z,99527.88
2024-03-03T20:46:01.378Z,99481.34
2024-03-03T20:50:02.901Z,99468.16
2024-03-03T20:54:04.463Z,99544.81
2024-03-03T20:58:06.015Z,99498.09
2024-03-03T21:02:07.539Z,99552.72
2024-03-03T21:06:09.093Z,99560.81
2024-03-03T21:10:10.977Z,99547.91
2024-03-03T21:14:12.700Z,99529.31
2024-03-03T21:18:14.418Z,99556.84
2024-03-03T21:22:18.254Z,99556.91
2024-03-03T21:26:19.869Z,99499.19
2024-03-03T21:30:21.452Z,99516.47
2024-03-03T21:34:22.903Z,99569.31
2024-03-03T21:38:24.402Z,99573.66
2024-03-03T21:42:25.834Z,99581.72
2024-03-03T21:46:27.723Z,99569.84
2024-03-03T21:50:29.209Z,99522.53
2024-03-03T21:54:30.688Z,99545.41
2024-03-03T21:58:33.035Z,99570.09
2024-03-03T22:02:34.766Z,99519.31
2024-03-03T22:06:36.348Z,99565.13
2024-03-03T22:10:38.019Z,99576.50
2024-03-03T22:14:39.617Z,99588.81
2024-03-03T22:18:44.753Z,99589.47
2024-03-03T22:22:47.796Z,99594.91
2024-03-03T22:26:49.279Z,99593.38
2024-03-03T22:30:52.394Z,99554.38
2024-03-03T22:34:53.872Z,99523.25
2024-03-03T22:38:55.415Z,99531.66
2024-03-03T22:42:58.367Z,99596.38
2024-03-03T22:47:00.027Z,99531.81
2024-03-03T22:51:01.522Z,99553.13
2024-03-03T22:55:03.492Z,99594.00
2024-03-03T22:59:04.950Z,99592.38
2024-03-03T23:03:06.944Z,99556.00
2024-03-03T23:07:08.430Z,99596.81
2024-03-03T23:11:09.969Z,99569.75
2024-03-03T23:15:12.706Z,99530.97
2024-03-03T23:19:14.556Z,99585.28
2024-03-03T23:23:16.369Z,99562.47
2024-03-03T23:27:18.741Z,99600.97
2024-03-03T23:31:20.360Z,99538.09
2024-03-03T23:35:23.294Z,99516.31
2024-03-03T23:39:24.734Z,99577.41
2024-03-03T23:43:26.338Z,99593.19
2024-03-03T23:47:28.779Z,99549.97
2024-03-03T23:51:30.514Z,99610.56
2024-03-03T23:55:32.065Z,99609.69
2024-03-03T23:59:34.196Z,99554.47
